Marco Polo — BR2031 — position and weather

sailwx.info

Track history (hours):
 
Tides and Currents Weather Stations Pressure Air Temp Water Temp Dewpoint Dewpoint Depression Visibility Wind Speed Wind Dir Waves Ship Positions

Marco Polo

Last reported at 2016-Feb-09 09:31 UTC. Time now 2016-Feb-09 09:59 UTC.
Position N 24°25' E 118°17'.

Length 32 m.

MMSI: 416000256.

Date/timePositionNaut miles runAvg speedWind from/ knotsBaromVisibWave heightAir tempDewpointWater temp
2016-Feb-09 09:31N 24°25' E 118°17'0 0.1
2016-Feb-09 08:30N 24°25' E 118°17'9 9.6
2016-Feb-09 07:33N 24°32' E 118°11'8 8.0
2016-Feb-09 06:30N 24°26' E 118°17'1 0.7
2016-Feb-09 05:33N 24°25' E 118°17'0 0.0
2016-Feb-09 04:33N 24°25' E 118°17'0 0.0
2016-Feb-09 03:33N 24°25' E 118°17'1 1.2
2016-Feb-09 02:33N 24°26' E 118°17'8 7.7
2016-Feb-09 01:33N 24°32' E 118°12'9 8.7
2016-Feb-09 00:33N 24°25' E 118°17'0 0.0
2016-Feb-08 23:33N 24°25' E 118°17'0 0.0
2016-Feb-08 22:33N 24°25' E 118°17'0 0.0
2016-Feb-08 21:33N 24°25' E 118°17'0 0.0
2016-Feb-08 20:33N 24°25' E 118°17'0 0.0
2016-Feb-08 19:33N 24°25' E 118°17'0 0.0
2016-Feb-08 18:34N 24°25' E 118°17'0 0.0
2016-Feb-08 17:33N 24°25' E 118°17'0 0.0
2016-Feb-08 16:33N 24°25' E 118°17'0 0.0
2016-Feb-08 15:33N 24°25' E 118°17'0 0.0
2016-Feb-08 14:33N 24°25' E 118°17'0 0.0
2016-Feb-08 09:33N 24°25' E 118°17'9 8.9
2016-Feb-08 08:33N 24°32' E 118°11'9 8.7
2016-Feb-08 07:33N 24°25' E 118°17'0 0.4
2016-Feb-08 06:33N 24°25' E 118°17'0 0.1
2016-Feb-08 05:33N 24°25' E 118°17'7 7.0
2016-Feb-08 04:33N 24°31' E 118°14'2 2.1
2016-Feb-08 03:33N 24°32' E 118°12'9 8.7
2016-Feb-08 02:32N 24°25' E 118°17'0 0.5
2016-Feb-08 01:33N 24°25' E 118°17'0 0.0
2016-Feb-08 00:33N 24°25' E 118°17'0 0.0
2016-Feb-07 23:29N 24°25' E 118°17'0 0.0
2016-Feb-07 22:33N 24°25' E 118°17'0 0.0
2016-Feb-07 21:33N 24°25' E 118°17'0 0.0
2016-Feb-07 20:31N 24°25' E 118°17'0 0.0
2016-Feb-07 19:24N 24°25' E 118°17'0 0.0
2016-Feb-07 18:33N 24°25' E 118°17'0 0.0
2016-Feb-07 17:33N 24°25' E 118°17'0 0.0
2016-Feb-07 16:33N 24°25' E 118°17'0 0.0
2016-Feb-07 15:30N 24°25' E 118°17'0 0.0
2016-Feb-07 14:33N 24°25' E 118°17'0 0.0
2016-Feb-07 06:30N 24°25' E 118°17'0 0.0
2016-Feb-07 05:29N 24°25' E 118°17'0 0.0
2016-Feb-07 04:33N 24°25' E 118°17'0 0.0
2016-Feb-07 03:33N 24°25' E 118°17'0 0.0
2016-Feb-07 02:30N 24°25' E 118°17'0 0.5
2016-Feb-07 01:33N 24°25' E 118°17'9 9.1
2016-Feb-07 00:33N 24°32' E 118°11'9 9.1
2016-Feb-06 23:33N 24°25' E 118°17'0 0.0
2016-Feb-06 20:05N 24°25' E 118°17'0 0.0
2016-Feb-06 19:33N 24°25' E 118°17'0 0.0
2016-Feb-06 18:33N 24°25' E 118°17'0 0.0
2016-Feb-06 17:33N 24°25' E 118°17'0 0.0
2016-Feb-06 16:33N 24°25' E 118°17'0 0.0
2016-Feb-06 15:33N 24°25' E 118°17'0 0.0
2016-Feb-06 14:33N 24°25' E 118°17'0 0.0
2016-Feb-06 09:33N 24°25' E 118°17'3 0.9
2016-Feb-06 06:33N 24°28' E 118°17'7 6.8
2016-Feb-06 05:33N 24°32' E 118°11'2 1.7
2016-Feb-06 04:33N 24°31' E 118°13'8 7.5
2016-Feb-06 03:33N 24°25' E 118°17'0 0.0
2016-Feb-06 02:33N 24°25' E 118°17'0 0.4
2016-Feb-06 01:33N 24°25' E 118°17'9 8.6
2016-Feb-06 00:33N 24°32' E 118°11'9 1.2
2016-Feb-05 17:12N 24°25' E 118°17'0 0.0
2016-Feb-05 16:11N 24°25' E 118°17'0 0.0
2016-Feb-05 15:33N 24°25' E 118°17'7 1.1
2016-Feb-05 09:33N 24°31' E 118°14'7 6.4
2016-Feb-05 08:30N 24°25' E 118°17'1 0.6
2016-Feb-05 07:33N 24°26' E 118°17'8 8.4
2016-Feb-05 06:33N 24°32' E 118°11'8 7.9
2016-Feb-05 05:33N 24°26' E 118°17'1 1.3
2016-Feb-05 04:33N 24°25' E 118°17'0 0.4
2016-Feb-05 03:30N 24°25' E 118°17'0 0.0
2016-Feb-05 02:33N 24°25' E 118°17'0 0.0
2016-Feb-05 01:33N 24°25' E 118°17'0 0.0
2016-Feb-05 00:25N 24°25' E 118°17'0 0.0
2016-Feb-04 23:33N 24°25' E 118°17'0 0.0
2016-Feb-04 22:32N 24°25' E 118°17'0 0.0
2016-Feb-04 15:31N 24°25' E 118°17'0 0.0
2016-Feb-04 14:33N 24°25' E 118°17'3 0.4
2016-Feb-04 07:32N 24°28' E 118°17'6 6.2
2016-Feb-04 06:31N 24°32' E 118°11'9 9.0
2016-Feb-04 05:31N 24°25' E 118°17'0 0.0
2016-Feb-04 04:33N 24°25' E 118°17'1 0.4
2016-Feb-04 02:33N 24°26' E 118°17'7 6.9
2016-Feb-04 01:33N 24°31' E 118°13'8 7.7
2016-Feb-04 00:33N 24°25' E 118°17'0 0.0
2016-Feb-03 23:33N 24°25' E 118°17'0 0.0
2016-Feb-03 22:33N 24°25' E 118°17'0 0.0
2016-Feb-03 21:34N 24°25' E 118°17'0 0.0
2016-Feb-03 20:34N 24°25' E 118°17'0 0.0
2016-Feb-03 19:33N 24°25' E 118°17'0 0.0
2016-Feb-03 18:33N 24°25' E 118°17'0 0.0
2016-Feb-03 17:33N 24°25' E 118°17'0 0.0
2016-Feb-03 16:33N 24°25' E 118°17'0 0.0
2016-Feb-03 15:33N 24°25' E 118°17'0 0.0
2016-Feb-03 14:33N 24°25' E 118°17'1 0.2
2016-Feb-03 09:33N 24°26' E 118°17'8 8.0
2016-Feb-03 08:33N 24°32' E 118°11'9 8.5
2016-Feb-03 07:30N 24°25' E 118°17'0 0.1
2016-Feb-03 06:32N 24°25' E 118°17'9 9.1
2016-Feb-03 05:33N 24°32' E 118°11'2 2.1
2016-Feb-03 04:33N 24°31' E 118°13'7 7.1
2016-Feb-03 03:33N 24°25' E 118°17'0 0.2
2016-Feb-03 01:31N 24°25' E 118°17'0 0.0
2016-Feb-03 00:29N 24°25' E 118°17'0 0.0
2016-Feb-02 23:29N 24°25' E 118°17'0 0.0
2016-Feb-02 22:32N 24°25' E 118°17'0 0.0
2016-Feb-02 21:30N 24°25' E 118°17'0 0.0
2016-Feb-02 20:32N 24°25' E 118°17'0 0.0
2016-Feb-02 19:20N 24°25' E 118°17'0 0.0
2016-Feb-02 05:25N 24°25' E 118°17'8 9.2
2016-Feb-02 04:33N 24°32' E 118°12'1 0.6
2016-Feb-02 03:32N 24°32' E 118°13'0 0.1
2016-Feb-02 01:09N 24°31' E 118°13'4 4.4
2016-Feb-02 00:17N 24°29' E 118°16'4 1.3
2016-Feb-01 21:21N 24°25' E 118°17'7 0.6
2016-Feb-01 09:33N 24°31' E 118°13'6 6.0
2016-Feb-01 08:33N 24°26' E 118°17'1 0.8
2016-Feb-01 07:33N 24°25' E 118°17'0 0.0
2016-Feb-01 06:31N 24°25' E 118°17'0 0.0
2016-Feb-01 04:21N 24°25' E 118°17'810.1
2016-Feb-01 03:32N 24°32' E 118°12'1 1.2
2016-Feb-01 02:33N 24°31' E 118°13'7 7.1
2016-Feb-01 01:31N 24°25' E 118°17'0 0.1
2016-Feb-01 00:33N 24°25' E 118°17'0 0.0
2016-Jan-31 23:33N 24°25' E 118°17'0 0.0
2016-Jan-31 22:32N 24°25' E 118°17'0 0.0
2016-Jan-31 21:33N 24°25' E 118°17'0 0.0
2016-Jan-31 20:33N 24°25' E 118°17'0 0.0
2016-Jan-31 19:33N 24°25' E 118°17'0 0.0
2016-Jan-31 18:33N 24°25' E 118°17'0 0.0
2016-Jan-31 17:33N 24°25' E 118°17'0 0.0
2016-Jan-31 16:33N 24°25' E 118°17'0 0.0
2016-Jan-31 15:33N 24°25' E 118°17'0 0.0
2016-Jan-31 14:33N 24°25' E 118°17'9 0.9
2016-Jan-31 04:33N 24°32' E 118°12'8 2.8
2016-Jan-31 01:32N 24°25' E 118°17'8 7.8
2016-Jan-31 00:33N 24°32' E 118°12'8 4.0
2016-Jan-30 22:29N 24°25' E 118°17'0 0.0
2016-Jan-30 21:33N 24°25' E 118°17'0 0.0
2016-Jan-30 20:33N 24°25' E 118°17'0 0.0
2016-Jan-30 19:33N 24°25' E 118°17'0 0.0
2016-Jan-30 18:30N 24°25' E 118°17'0 0.0
2016-Jan-30 17:30N 24°25' E 118°17'9 1.1
2016-Jan-30 09:33N 24°32' E 118°12'  
Track history (hours):
 
Tides and Currents Weather Stations Pressure Air Temp Water Temp Dewpoint Dewpoint Depression Visibility Wind Speed Wind Dir Waves Ship Positions

Marco Polo

Last reported at 2016-Feb-09 09:31 UTC. Time now 2016-Feb-09 09:59 UTC.
Position N 24°25' E 118°17'.

Length 32 m.

MMSI: 416000256.

Date/timePositionNaut miles runAvg speedWind from/ knotsBaromVisibWave heightAir tempDewpointWater temp
2016-Feb-09 09:31N 24°25' E 118°17'0 0.1
2016-Feb-09 08:30N 24°25' E 118°17'9 9.6
2016-Feb-09 07:33N 24°32' E 118°11'8 8.0
2016-Feb-09 06:30N 24°26' E 118°17'1 0.7
2016-Feb-09 05:33N 24°25' E 118°17'0 0.0
2016-Feb-09 04:33N 24°25' E 118°17'0 0.0
2016-Feb-09 03:33N 24°25' E 118°17'1 1.2
2016-Feb-09 02:33N 24°26' E 118°17'8 7.7
2016-Feb-09 01:33N 24°32' E 118°12'9 8.7
2016-Feb-09 00:33N 24°25' E 118°17'0 0.0
2016-Feb-08 23:33N 24°25' E 118°17'0 0.0
2016-Feb-08 22:33N 24°25' E 118°17'0 0.0
2016-Feb-08 21:33N 24°25' E 118°17'0 0.0
2016-Feb-08 20:33N 24°25' E 118°17'0 0.0
2016-Feb-08 19:33N 24°25' E 118°17'0 0.0
2016-Feb-08 18:34N 24°25' E 118°17'0 0.0
2016-Feb-08 17:33N 24°25' E 118°17'0 0.0
2016-Feb-08 16:33N 24°25' E 118°17'0 0.0
2016-Feb-08 15:33N 24°25' E 118°17'0 0.0
2016-Feb-08 14:33N 24°25' E 118°17'0 0.0
2016-Feb-08 09:33N 24°25' E 118°17'9 8.9
2016-Feb-08 08:33N 24°32' E 118°11'9 8.7
2016-Feb-08 07:33N 24°25' E 118°17'0 0.4
2016-Feb-08 06:33N 24°25' E 118°17'0 0.1
2016-Feb-08 05:33N 24°25' E 118°17'7 7.0
2016-Feb-08 04:33N 24°31' E 118°14'2 2.1
2016-Feb-08 03:33N 24°32' E 118°12'9 8.7
2016-Feb-08 02:32N 24°25' E 118°17'0 0.5
2016-Feb-08 01:33N 24°25' E 118°17'0 0.0
2016-Feb-08 00:33N 24°25' E 118°17'0 0.0
2016-Feb-07 23:29N 24°25' E 118°17'0 0.0
2016-Feb-07 22:33N 24°25' E 118°17'0 0.0
2016-Feb-07 21:33N 24°25' E 118°17'0 0.0
2016-Feb-07 20:31N 24°25' E 118°17'0 0.0
2016-Feb-07 19:24N 24°25' E 118°17'0 0.0
2016-Feb-07 18:33N 24°25' E 118°17'0 0.0
2016-Feb-07 17:33N 24°25' E 118°17'0 0.0
2016-Feb-07 16:33N 24°25' E 118°17'0 0.0
2016-Feb-07 15:30N 24°25' E 118°17'0 0.0
2016-Feb-07 14:33N 24°25' E 118°17'0 0.0
2016-Feb-07 06:30N 24°25' E 118°17'0 0.0
2016-Feb-07 05:29N 24°25' E 118°17'0 0.0
2016-Feb-07 04:33N 24°25' E 118°17'0 0.0
2016-Feb-07 03:33N 24°25' E 118°17'0 0.0
2016-Feb-07 02:30N 24°25' E 118°17'0 0.5
2016-Feb-07 01:33N 24°25' E 118°17'9 9.1
2016-Feb-07 00:33N 24°32' E 118°11'9 9.1
2016-Feb-06 23:33N 24°25' E 118°17'0 0.0
2016-Feb-06 20:05N 24°25' E 118°17'0 0.0
2016-Feb-06 19:33N 24°25' E 118°17'0 0.0
2016-Feb-06 18:33N 24°25' E 118°17'0 0.0
2016-Feb-06 17:33N 24°25' E 118°17'0 0.0
2016-Feb-06 16:33N 24°25' E 118°17'0 0.0
2016-Feb-06 15:33N 24°25' E 118°17'0 0.0
2016-Feb-06 14:33N 24°25' E 118°17'0 0.0
2016-Feb-06 09:33N 24°25' E 118°17'3 0.9
2016-Feb-06 06:33N 24°28' E 118°17'7 6.8
2016-Feb-06 05:33N 24°32' E 118°11'2 1.7
2016-Feb-06 04:33N 24°31' E 118°13'8 7.5
2016-Feb-06 03:33N 24°25' E 118°17'0 0.0
2016-Feb-06 02:33N 24°25' E 118°17'0 0.4
2016-Feb-06 01:33N 24°25' E 118°17'9 8.6
2016-Feb-06 00:33N 24°32' E 118°11'9 1.2
2016-Feb-05 17:12N 24°25' E 118°17'0 0.0
2016-Feb-05 16:11N 24°25' E 118°17'0 0.0
2016-Feb-05 15:33N 24°25' E 118°17'7 1.1
2016-Feb-05 09:33N 24°31' E 118°14'7 6.4
2016-Feb-05 08:30N 24°25' E 118°17'1 0.6
2016-Feb-05 07:33N 24°26' E 118°17'8 8.4
2016-Feb-05 06:33N 24°32' E 118°11'8 7.9
2016-Feb-05 05:33N 24°26' E 118°17'1 1.3
2016-Feb-05 04:33N 24°25' E 118°17'0 0.4
2016-Feb-05 03:30N 24°25' E 118°17'0 0.0
2016-Feb-05 02:33N 24°25' E 118°17'0 0.0
2016-Feb-05 01:33N 24°25' E 118°17'0 0.0
2016-Feb-05 00:25N 24°25' E 118°17'0 0.0
2016-Feb-04 23:33N 24°25' E 118°17'0 0.0
2016-Feb-04 22:32N 24°25' E 118°17'0 0.0
2016-Feb-04 15:31N 24°25' E 118°17'0 0.0
2016-Feb-04 14:33N 24°25' E 118°17'3 0.4
2016-Feb-04 07:32N 24°28' E 118°17'6 6.2
2016-Feb-04 06:31N 24°32' E 118°11'9 9.0
2016-Feb-04 05:31N 24°25' E 118°17'0 0.0
2016-Feb-04 04:33N 24°25' E 118°17'1 0.4
2016-Feb-04 02:33N 24°26' E 118°17'7 6.9
2016-Feb-04 01:33N 24°31' E 118°13'8 7.7
2016-Feb-04 00:33N 24°25' E 118°17'0 0.0
2016-Feb-03 23:33N 24°25' E 118°17'0 0.0
2016-Feb-03 22:33N 24°25' E 118°17'0 0.0
2016-Feb-03 21:34N 24°25' E 118°17'0 0.0
2016-Feb-03 20:34N 24°25' E 118°17'0 0.0
2016-Feb-03 19:33N 24°25' E 118°17'0 0.0
2016-Feb-03 18:33N 24°25' E 118°17'0 0.0
2016-Feb-03 17:33N 24°25' E 118°17'0 0.0
2016-Feb-03 16:33N 24°25' E 118°17'0 0.0
2016-Feb-03 15:33N 24°25' E 118°17'0 0.0
2016-Feb-03 14:33N 24°25' E 118°17'1 0.2
2016-Feb-03 09:33N 24°26' E 118°17'8 8.0
2016-Feb-03 08:33N 24°32' E 118°11'9 8.5
2016-Feb-03 07:30N 24°25' E 118°17'0 0.1
2016-Feb-03 06:32N 24°25' E 118°17'9 9.1
2016-Feb-03 05:33N 24°32' E 118°11'2 2.1
2016-Feb-03 04:33N 24°31' E 118°13'7 7.1
2016-Feb-03 03:33N 24°25' E 118°17'0 0.2
2016-Feb-03 01:31N 24°25' E 118°17'0 0.0
2016-Feb-03 00:29N 24°25' E 118°17'0 0.0
2016-Feb-02 23:29N 24°25' E 118°17'0 0.0
2016-Feb-02 22:32N 24°25' E 118°17'0 0.0
2016-Feb-02 21:30N 24°25' E 118°17'0 0.0
2016-Feb-02 20:32N 24°25' E 118°17'0 0.0
2016-Feb-02 19:20N 24°25' E 118°17'0 0.0
2016-Feb-02 05:25N 24°25' E 118°17'8 9.2
2016-Feb-02 04:33N 24°32' E 118°12'1 0.6
2016-Feb-02 03:32N 24°32' E 118°13'0 0.1
2016-Feb-02 01:09N 24°31' E 118°13'4 4.4
2016-Feb-02 00:17N 24°29' E 118°16'4 1.3
2016-Feb-01 21:21N 24°25' E 118°17'7 0.6
2016-Feb-01 09:33N 24°31' E 118°13'6 6.0
2016-Feb-01 08:33N 24°26' E 118°17'1 0.8
2016-Feb-01 07:33N 24°25' E 118°17'0 0.0
2016-Feb-01 06:31N 24°25' E 118°17'0 0.0
2016-Feb-01 04:21N 24°25' E 118°17'810.1
2016-Feb-01 03:32N 24°32' E 118°12'1 1.2
2016-Feb-01 02:33N 24°31' E 118°13'7 7.1
2016-Feb-01 01:31N 24°25' E 118°17'0 0.1
2016-Feb-01 00:33N 24°25' E 118°17'0 0.0
2016-Jan-31 23:33N 24°25' E 118°17'0 0.0
2016-Jan-31 22:32N 24°25' E 118°17'0 0.0
2016-Jan-31 21:33N 24°25' E 118°17'0 0.0
2016-Jan-31 20:33N 24°25' E 118°17'0 0.0
2016-Jan-31 19:33N 24°25' E 118°17'0 0.0
2016-Jan-31 18:33N 24°25' E 118°17'0 0.0
2016-Jan-31 17:33N 24°25' E 118°17'0 0.0
2016-Jan-31 16:33N 24°25' E 118°17'0 0.0
2016-Jan-31 15:33N 24°25' E 118°17'0 0.0
2016-Jan-31 14:33N 24°25' E 118°17'9 0.9
2016-Jan-31 04:33N 24°32' E 118°12'8 2.8
2016-Jan-31 01:32N 24°25' E 118°17'8 7.8
2016-Jan-31 00:33N 24°32' E 118°12'8 4.0
2016-Jan-30 22:29N 24°25' E 118°17'0 0.0
2016-Jan-30 21:33N 24°25' E 118°17'0 0.0
2016-Jan-30 20:33N 24°25' E 118°17'0 0.0
2016-Jan-30 19:33N 24°25' E 118°17'0 0.0
2016-Jan-30 18:30N 24°25' E 118°17'0 0.0
2016-Jan-30 17:30N 24°25' E 118°17'9 1.1
2016-Jan-30 09:33N 24°32' E 118°12'  

Dump ship's entire track history